首页
METAR-TAF:

METAR-TAF

机场 :

阿尔伯特, 法国

纬度: 49-58-21N, 经度: 002-41-29E, 海拔: 111米

当前天气观测

该预报发布于25分钟前的12:00 UTC
风速7节,风向,在西转西北东转东北之间变化
温度 24°C
湿度 36%
气压 1023 hPa
能见度10公里或以上
1500米以下无云,无积雨云

METAR: LFAQ 131200Z AUTO 01007KT 300V060 CAVOK 24/08 Q1023 NOSIG

时间: 14:25 (12:25 UTC)

预报

该预报发布于1小时和25分钟前的11:00 UTC
预报有效从13日的 12点(UTC)到 13日的 21点(UTC)
风速8节,风向北转西北
能见度10公里或以上
1500米以下无云,无积雨云

TAF: LFAQ 131100Z 1312/1321 34008KT CAVOK

超过4000个机场的气象观测和天气预报(METAR&TAF报告)。

可查询的气象台以黄色和红色小点在地图上表示。

将鼠标移到小点上方,可查看气象台名称。

然后点击查看天气观测和预报。

如需切换地图:点击带黑十字的绿色按钮放大地图;点击带横线的绿色按钮缩小地图;或者点击绿色箭头查看邻近地区的地图。


METAR-TAF: